createdAt,value
2023-04-02T00:02:30.873Z,94706.34
2023-04-02T00:05:54.912Z,94710.81
2023-04-02T00:09:03.037Z,94718.72
2023-04-02T00:12:18.881Z,94716.88
2023-04-02T00:15:21.439Z,94719.75
2023-04-02T00:18:25.015Z,94727.41
2023-04-02T00:21:32.212Z,94725.81
2023-04-02T00:24:35.267Z,94736.38
2023-04-02T00:27:37.925Z,94743.22
2023-04-02T00:30:47.853Z,94738.22
2023-04-02T00:33:50.873Z,94742.97
2023-04-02T00:36:54.986Z,94744.81
2023-04-02T00:40:01.841Z,94738.50
2023-04-02T00:43:07.299Z,94753.22
2023-04-02T00:46:15.551Z,94755.88
2023-04-02T00:49:23.646Z,94766.41
2023-04-02T00:52:30.871Z,94771.69
2023-04-02T00:55:37.287Z,94764.84
2023-04-02T00:58:41.555Z,94771.69
2023-04-02T01:01:44.303Z,94775.41
2023-04-02T01:04:56.396Z,94777.75
2023-04-02T01:08:08.794Z,94783.81
2023-04-02T01:11:25.760Z,94782.22
2023-04-02T01:14:40.939Z,94790.41
2023-04-02T01:18:02.558Z,94792.78
2023-04-02T01:21:21.786Z,94793.06
2023-04-02T01:24:32.610Z,94793.84
2023-04-02T01:27:41.676Z,94799.13
2023-04-02T01:30:46.655Z,94800.97
2023-04-02T01:33:49.254Z,94805.44
2023-04-02T01:37:07.344Z,94811.50
2023-04-02T01:40:23.535Z,94826.53
2023-04-02T01:43:33.890Z,94831.00
2023-04-02T01:46:40.964Z,94833.63
2023-04-02T01:49:44.854Z,94837.31
2023-04-02T01:52:49.626Z,94843.38
2023-04-02T01:55:55.267Z,94846.03
2023-04-02T01:58:59.368Z,94850.50
2023-04-02T02:02:05.462Z,94843.63
2023-04-02T02:05:14.891Z,94852.34
2023-04-02T02:08:30.077Z,94855.75
2023-04-02T02:11:36.320Z,94866.31
2023-04-02T02:14:38.835Z,94876.06
2023-04-02T02:17:42.964Z,94887.41
2023-04-02T02:20:45.888Z,94883.16
2023-04-02T02:23:48.441Z,94885.56
2023-04-02T02:27:05.314Z,94886.59
2023-04-02T02:30:15.496Z,94895.06
2023-04-02T02:33:25.498Z,94901.38
2023-04-02T02:36:33.563Z,94899.53
2023-04-02T02:39:40.444Z,94905.06
2023-04-02T02:42:48.599Z,94920.63
2023-04-02T02:45:53.864Z,94925.88
2023-04-02T02:48:59.760Z,94925.88
2023-04-02T02:52:14.030Z,94930.34
2023-04-02T02:55:19.248Z,94937.22
2023-04-02T02:58:27.477Z,94945.91
2023-04-02T03:01:30.625Z,94948.81
2023-04-02T03:04:35.908Z,94953.03
2023-04-02T03:07:39.071Z,94955.66
2023-04-02T03:10:48.145Z,94967.81
2023-04-02T03:13:54.614Z,94966.22
2023-04-02T03:17:04.517Z,94969.66
2023-04-02T03:20:13.381Z,94983.88
2023-04-02T03:23:20.424Z,94992.03
2023-04-02T03:26:30.345Z,94996.25
2023-04-02T03:29:36.635Z,94999.69
2023-04-02T03:32:41.155Z,95003.38
2023-04-02T03:35:50.911Z,95011.28
2023-04-02T03:38:58.179Z,95010.22
2023-04-02T03:42:08.578Z,95026.03
2023-04-02T03:45:16.181Z,95029.47
2023-04-02T03:48:25.074Z,95034.75
2023-04-02T03:51:34.909Z,95035.53
2023-04-02T03:54:38.303Z,95040.00
2023-04-02T03:57:47.434Z,95051.34
2023-04-02T04:00:55.708Z,95057.41
2023-04-02T04:04:06.826Z,95066.88
2023-04-02T04:07:17.333Z,95074.28
2023-04-02T04:10:24.312Z,95078.22
2023-04-02T04:13:37.443Z,95091.41
2023-04-02T04:16:44.667Z,95091.69
2023-04-02T04:19:55.451Z,95094.03
2023-04-02T04:23:10.686Z,95109.84
2023-04-02T04:26:21.353Z,95119.59
2023-04-02T04:29:38.104Z,95122.25
2023-04-02T04:32:50.191Z,95124.88
2023-04-02T04:35:56.717Z,95129.09
2023-04-02T04:39:07.429Z,95143.88
2023-04-02T04:42:19.097Z,95150.19
2023-04-02T04:45:35.176Z,95149.16
2023-04-02T04:48:42.738Z,95168.66
2023-04-02T04:51:52.121Z,95173.91
2023-04-02T04:54:56.512Z,95177.59
2023-04-02T04:58:04.437Z,95179.19
2023-04-02T05:01:13.181Z,95186.31
2023-04-02T05:04:21.962Z,95203.72
2023-04-02T05:07:30.342Z,95210.81
2023-04-02T05:10:41.999Z,95209.78
2023-04-02T05:13:51.161Z,95223.75
2023-04-02T05:17:01.505Z,95221.38
2023-04-02T05:20:09.848Z,95230.88
2023-04-02T05:23:19.268Z,95234.56
2023-04-02T05:26:30.573Z,95236.38
2023-04-02T05:29:38.603Z,95242.47
2023-04-02T05:32:47.142Z,95242.47
2023-04-02T05:35:55.266Z,95252.19
2023-04-02T05:39:00.672Z,95248.78
2023-04-02T05:42:07.423Z,95251.69
2023-04-02T05:45:21.823Z,95268.03
2023-04-02T05:48:30.873Z,95275.41
2023-04-02T05:51:41.715Z,95279.06
2023-04-02T05:54:49.664Z,95283.31
2023-04-02T05:58:21.275Z,95278.03
2023-04-02T06:01:33.470Z,95300.97
2023-04-02T06:04:43.692Z,95307.03
2023-04-02T06:07:49.429Z,95307.84
2023-04-02T06:10:57.181Z,95313.34
2023-04-02T06:14:01.220Z,95321.78
2023-04-02T06:17:05.844Z,95323.88
2023-04-02T06:20:14.540Z,95329.97
2023-04-02T06:23:20.729Z,95346.56
2023-04-02T06:26:27.782Z,95347.38
2023-04-02T06:29:39.483Z,95352.66
2023-04-02T06:32:41.945Z,95356.84
2023-04-02T06:35:46.697Z,95356.31
2023-04-02T06:38:51.819Z,95369.50
2023-04-02T06:42:01.034Z,95367.38
2023-04-02T06:45:06.076Z,95376.38
2023-04-02T06:48:16.471Z,95383.47
2023-04-02T06:51:22.144Z,95391.38
2023-04-02T06:54:24.847Z,95399.28
2023-04-02T06:57:27.290Z,95403.78
2023-04-02T07:00:36.892Z,95411.69
2023-04-02T07:03:41.842Z,95417.75
2023-04-02T07:06:44.288Z,95418.53
2023-04-02T07:09:46.862Z,95429.09
2023-04-02T07:12:49.575Z,95431.72
2023-04-02T07:15:55.318Z,95441.19
2023-04-02T07:18:59.774Z,95443.31
2023-04-02T07:22:02.167Z,95451.75
2023-04-02T07:25:05.046Z,95452.81
2023-04-02T07:28:07.548Z,95457.28
2023-04-02T07:31:17.369Z,95469.41
2023-04-02T07:34:19.907Z,95480.22
2023-04-02T07:37:22.463Z,95485.47
2023-04-02T07:40:24.943Z,95496.03
2023-04-02T07:43:27.480Z,95498.66
2023-04-02T07:46:31.428Z,95499.69
2023-04-02T07:49:34.143Z,95500.50
2023-04-02T07:52:40.612Z,95513.69
2023-04-02T07:55:43.173Z,95527.09
2023-04-02T07:58:46.498Z,95516.56
2023-04-02T08:01:50.605Z,95527.91
2023-04-02T08:04:53.370Z,95536.59
2023-04-02T08:07:57.324Z,95539.00
2023-04-02T08:10:59.896Z,95535.56
2023-04-02T08:14:02.438Z,95555.84
2023-04-02T08:17:06.552Z,95546.13
2023-04-02T08:20:15.378Z,95561.94
2023-04-02T08:23:18.203Z,95561.94
2023-04-02T08:26:20.983Z,95574.53
2023-04-02T08:29:24.037Z,95575.09
2023-04-02T08:32:29.153Z,95577.19
2023-04-02T08:35:32.395Z,95585.88
2023-04-02T08:38:35.006Z,95591.97
2023-04-02T08:41:43.038Z,95599.06
2023-04-02T08:44:56.441Z,95604.34
2023-04-02T08:48:03.385Z,95610.41
2023-04-02T08:51:07.440Z,95614.88
2023-04-02T08:54:18.750Z,95617.53
2023-04-02T08:57:31.166Z,95622.00
2023-04-02T09:00:39.095Z,95625.44
2023-04-02T09:03:46.753Z,95633.34
2023-04-02T09:06:52.658Z,95632.53
2023-04-02T09:09:55.187Z,95633.34
2023-04-02T09:12:58.624Z,95643.66
2023-04-02T09:16:07.954Z,95641.00
2023-04-02T09:19:17.997Z,95654.19
2023-04-02T09:22:22.692Z,95658.66
2023-04-02T09:25:28.249Z,95670.56
2023-04-02T09:28:30.940Z,95678.47
2023-04-02T09:31:39.993Z,95685.09
2023-04-02T09:34:44.012Z,95678.78
2023-04-02T09:37:47.714Z,95683.25
2023-04-02T09:40:52.472Z,95691.19
2023-04-02T09:44:15.462Z,95693.81
2023-04-02T09:47:27.115Z,95703.56
2023-04-02T09:50:34.181Z,95717.78
2023-04-02T09:53:41.130Z,95717.78
2023-04-02T09:57:01.586Z,95718.56
2023-04-02T10:00:25.216Z,95732.31
2023-04-02T10:03:34.358Z,95728.56
2023-04-02T10:06:38.289Z,95741.72
2023-04-02T10:09:41.073Z,95747.00
2023-04-02T10:12:47.651Z,95754.91
2023-04-02T10:15:54.337Z,95760.19
2023-04-02T10:18:59.696Z,95771.78
2023-04-02T10:22:08.047Z,95776.00
2023-04-02T10:25:15.767Z,95780.72
2023-04-02T10:28:45.363Z,95789.19
2023-04-02T10:31:57.513Z,95792.09
2023-04-02T10:35:02.893Z,95799.72
2023-04-02T10:38:28.722Z,95810.28
2023-04-02T10:41:37.993Z,95814.50
2023-04-02T10:44:50.794Z,95818.19
2023-04-02T10:47:59.941Z,95817.38
2023-04-02T10:51:23.727Z,95815.53
2023-04-02T10:55:35.311Z,95822.91
2023-04-02T11:03:40.985Z,95840.34
2023-04-02T11:06:58.096Z,95850.09
2023-04-02T11:10:47.434Z,95858.78
2023-04-02T11:14:46.353Z,95860.38
2023-04-02T11:29:03.146Z,95885.38
2023-04-02T11:32:55.645Z,95879.31
2023-04-02T11:36:17.240Z,95892.25
2023-04-02T11:39:53.825Z,95902.53
2023-04-02T11:42:56.504Z,95898.06
2023-04-02T11:46:01.870Z,95906.78
2023-04-02T11:49:39.617Z,95916.53
2023-04-02T11:52:53.827Z,95915.50
2023-04-02T11:56:19.206Z,95913.66
2023-04-02T11:59:27.948Z,95918.94
2023-04-02T12:02:41.310Z,95917.91
2023-04-02T12:05:54.686Z,95922.38
2023-04-02T12:09:07.977Z,95926.84
2023-04-02T12:12:18.931Z,95931.09
2023-04-02T12:15:44.072Z,95926.84
2023-04-02T12:18:54.037Z,95937.97
2023-04-02T12:21:57.810Z,95933.97
2023-04-02T12:25:06.355Z,95946.09
2023-04-02T12:28:22.371Z,95956.66
2023-04-02T12:31:26.172Z,95948.75
2023-04-02T12:34:31.388Z,95959.28
2023-04-02T12:37:33.981Z,95962.72
2023-04-02T12:40:36.664Z,95965.38
2023-04-02T12:43:40.156Z,95967.19
2023-04-02T12:51:07.865Z,95975.34
2023-04-02T12:58:27.870Z,95980.63
2023-04-02T13:01:33.912Z,95991.16
2023-04-02T13:04:47.920Z,95975.34
2023-04-02T13:07:55.873Z,95986.69
2023-04-02T13:11:01.103Z,95988.53
2023-04-02T13:14:05.945Z,96002.50
2023-04-02T13:17:40.001Z,96000.44
2023-04-02T13:20:43.622Z,96007.34
2023-04-02T13:23:47.953Z,96008.59
2023-04-02T13:26:51.601Z,96009.38
2023-04-02T13:29:54.263Z,96020.75
2023-04-02T13:32:57.280Z,96022.56
2023-04-02T13:35:59.845Z,96023.38
2023-04-02T13:39:03.835Z,96022.34
2023-04-02T13:42:08.889Z,96024.19
2023-04-02T13:45:22.960Z,96027.63
2023-04-02T13:48:28.886Z,96026.00
2023-04-02T13:51:37.429Z,96026.81
2023-04-02T13:54:46.820Z,96031.28
2023-04-02T13:57:52.037Z,96036.56
2023-04-02T14:00:54.729Z,96033.91
2023-04-02T14:03:58.106Z,96036.56
2023-04-02T14:07:33.394Z,96036.56
2023-04-02T14:10:59.536Z,96046.06
2023-04-02T14:14:20.060Z,96044.47
2023-04-02T14:17:36.047Z,96044.25
2023-04-02T14:20:49.170Z,96051.13
2023-04-02T14:24:07.584Z,96051.72
2023-04-02T14:27:24.098Z,96058.81
2023-04-02T14:30:37.443Z,96061.44
2023-04-02T14:33:47.917Z,96057.19
2023-04-02T14:37:00.427Z,96065.91
2023-04-02T14:40:14.232Z,96069.59
2023-04-02T14:43:23.454Z,96073.25
2023-04-02T14:46:27.555Z,96075.88
2023-04-02T14:49:36.071Z,96075.09
2023-04-02T14:52:40.408Z,96070.84
2023-04-02T14:55:47.215Z,96076.91
2023-04-02T14:58:56.179Z,96081.38
2023-04-02T15:02:03.544Z,96076.91
2023-04-02T15:05:16.403Z,96078.75
2023-04-02T15:08:23.718Z,96080.56
2023-04-02T15:11:30.844Z,96090.09
2023-04-02T15:14:38.532Z,96089.28
2023-04-02T15:17:41.306Z,96098.81
2023-04-02T15:20:53.760Z,96097.19
2023-04-02T15:24:03.421Z,96101.66
2023-04-02T15:27:25.193Z,96105.91
2023-04-02T15:30:31.329Z,96116.69
2023-04-02T15:33:45.884Z,96115.66
2023-04-02T15:37:01.757Z,96116.69
2023-04-02T15:40:18.696Z,96118.06
2023-04-02T15:43:39.242Z,96125.19
2023-04-02T15:46:55.451Z,96128.84
2023-04-02T15:50:02.852Z,96130.91
2023-04-02T15:53:17.349Z,96132.72
2023-04-02T15:56:26.599Z,96139.63
2023-04-02T15:59:59.184Z,96144.06
2023-04-02T16:03:34.646Z,96142.25
2023-04-02T16:06:48.411Z,96143.28
2023-04-02T16:10:00.607Z,96145.91
2023-04-02T16:13:12.672Z,96159.09
2023-04-02T16:16:18.821Z,96158.28
2023-04-02T16:19:30.265Z,96165.16
2023-04-02T16:22:35.112Z,96171.47
2023-04-02T16:25:45.504Z,96177.81
2023-04-02T16:28:59.750Z,96178.81
2023-04-02T16:32:12.745Z,96187.28
2023-04-02T16:38:44.812Z,96190.41
2023-04-02T16:41:57.746Z,96202.56
2023-04-02T16:45:11.536Z,96204.59
2023-04-02T16:48:23.590Z,96200.94
2023-04-02T16:51:36.265Z,96211.50
2023-04-02T16:54:46.388Z,96200.13
2023-04-02T16:57:55.485Z,96214.13
2023-04-02T17:01:08.546Z,96226.50
2023-04-02T17:04:29.123Z,96224.66
2023-04-02T17:07:43.870Z,96222.03
2023-04-02T17:10:52.762Z,96227.31
2023-04-02T17:14:06.173Z,96228.34
2023-04-02T17:17:11.606Z,96237.06
2023-04-02T17:20:19.854Z,96246.78
2023-04-02T17:23:26.147Z,96243.13
2023-04-02T17:26:32.137Z,96246.78
2023-04-02T17:29:39.071Z,96258.16
2023-04-02T17:32:42.012Z,96254.69
2023-04-02T17:35:56.887Z,96257.34
2023-04-02T17:39:10.857Z,96253.09
2023-04-02T17:42:25.849Z,96256.31
2023-04-02T17:45:34.504Z,96256.53
2023-04-02T17:48:43.903Z,96259.16
2023-04-02T17:51:52.991Z,96260.78
2023-04-02T17:55:10.772Z,96261.00
2023-04-02T17:58:27.568Z,96264.44
2023-04-02T18:01:36.060Z,96276.81
2023-04-02T18:04:47.702Z,96284.72
2023-04-02T18:07:59.177Z,96288.16
2023-04-02T18:11:10.771Z,96297.09
2023-04-02T18:14:34.243Z,96290.00
2023-04-02T18:17:47.325Z,96294.47
2023-04-02T18:20:59.260Z,96297.09
2023-04-02T18:24:21.224Z,96296.28
2023-04-02T18:27:47.392Z,96311.31
2023-04-02T18:30:58.647Z,96316.56
2023-04-02T18:34:17.706Z,96316.56
2023-04-02T18:37:29.570Z,96321.03
2023-04-02T18:40:43.341Z,96321.03
2023-04-02T18:44:02.341Z,96324.50
2023-04-02T18:47:17.236Z,96321.03
2023-04-02T18:50:29.212Z,96327.34
2023-04-02T18:53:33.683Z,96333.41
2023-04-02T18:56:38.744Z,96335.25
2023-04-02T18:59:47.941Z,96340.53
2023-04-02T19:02:54.435Z,96341.34
2023-04-02T19:06:02.154Z,96343.97
2023-04-02T19:09:12.891Z,96346.81
2023-04-02T19:12:18.450Z,96347.63
2023-04-02T19:15:23.546Z,96354.50
2023-04-02T19:18:37.423Z,96357.16
2023-04-02T19:21:49.769Z,96358.97
2023-04-02T19:25:17.951Z,96362.41
2023-04-02T19:28:29.208Z,96361.63
2023-04-02T19:31:50.204Z,96365.06
2023-04-02T19:35:02.152Z,96376.63
2023-04-02T19:38:14.799Z,96379.25
2023-04-02T19:41:30.409Z,96372.16
2023-04-02T19:44:32.887Z,96370.53
2023-04-02T19:47:37.125Z,96378.47
2023-04-02T19:50:39.904Z,96380.50
2023-04-02T19:53:42.615Z,96381.31
2023-04-02T19:56:45.621Z,96387.38
2023-04-02T19:59:48.238Z,96395.28
2023-04-02T20:02:52.135Z,96387.38
2023-04-02T20:05:56.793Z,96393.47
2023-04-02T20:09:00.136Z,96395.28
2023-04-02T20:12:02.619Z,96400.56
2023-04-02T20:15:06.591Z,96401.38
2023-04-02T20:18:11.118Z,96402.19
2023-04-02T20:21:14.115Z,96405.84
2023-04-02T20:24:16.629Z,96400.56
2023-04-02T20:27:19.856Z,96404.22
2023-04-02T20:30:22.416Z,96415.56
2023-04-02T20:33:27.636Z,96404.22
2023-04-02T20:36:30.166Z,96411.31
2023-04-02T20:39:32.743Z,96413.97
2023-04-02T20:42:35.349Z,96427.16
2023-04-02T20:45:38.759Z,96424.75
2023-04-02T20:48:43.364Z,96422.13
2023-04-02T20:51:47.306Z,96424.50
2023-04-02T20:54:51.903Z,96432.41
2023-04-02T20:57:54.833Z,96438.75
2023-04-02T21:01:07.442Z,96439.75
2023-04-02T21:04:11.251Z,96443.22
2023-04-02T21:07:13.682Z,96446.06
2023-04-02T21:10:16.492Z,96450.31
2023-04-02T21:13:18.956Z,96446.06
2023-04-02T21:16:23.760Z,96446.06
2023-04-02T21:19:28.036Z,96454.19
2023-04-02T21:22:30.778Z,96455.78
2023-04-02T21:25:33.231Z,96452.13
2023-04-02T21:28:35.980Z,96461.88
2023-04-02T21:31:40.117Z,96468.97
2023-04-02T21:34:44.068Z,96459.44
2023-04-02T21:37:46.580Z,96460.47
2023-04-02T21:40:49.093Z,96460.47
2023-04-02T21:43:51.882Z,96460.47
2023-04-02T21:46:54.443Z,96462.28
2023-04-02T21:49:58.273Z,96469.19
2023-04-02T21:53:00.846Z,96469.19
2023-04-02T21:56:04.568Z,96478.13
2023-04-02T21:59:08.714Z,96474.47
2023-04-02T22:02:11.914Z,96473.66
2023-04-02T22:05:16.169Z,96478.94
2023-04-02T22:08:18.649Z,96473.66
2023-04-02T22:11:23.788Z,96471.00
2023-04-02T22:14:27.513Z,96468.38
2023-04-02T22:17:30.460Z,96474.66
2023-04-02T22:20:34.789Z,96486.03
2023-04-02T22:23:37.833Z,96479.94
2023-04-02T22:26:41.141Z,96475.69
2023-04-02T22:29:43.808Z,96479.13
2023-04-02T22:32:46.584Z,96480.97
2023-04-02T22:35:53.514Z,96480.97
2023-04-02T22:38:57.083Z,96483.59
2023-04-02T22:41:59.530Z,96487.84
2023-04-02T22:45:05.051Z,96486.22
2023-04-02T22:48:07.987Z,96493.34
2023-04-02T22:51:13.891Z,96489.09
2023-04-02T22:54:16.763Z,96493.34
2023-04-02T22:57:19.362Z,96499.63
2023-04-02T23:00:21.901Z,96498.81
2023-04-02T23:03:24.345Z,96507.53
2023-04-02T23:06:29.072Z,96505.72
2023-04-02T23:09:31.626Z,96510.16
2023-04-02T23:12:34.338Z,96510.34
2023-04-02T23:15:37.072Z,96509.38
2023-04-02T23:18:40.730Z,96513.00
2023-04-02T23:21:44.545Z,96510.34
2023-04-02T23:24:47.087Z,96508.56
2023-04-02T23:27:50.083Z,96513.81
2023-04-02T23:30:53.608Z,96509.38
2023-04-02T23:33:56.316Z,96508.75
2023-04-02T23:37:00.086Z,96506.34
2023-04-02T23:40:02.648Z,96507.97
2023-04-02T23:43:05.517Z,96505.53
2023-04-02T23:46:08.027Z,96495.78
2023-04-02T23:49:12.122Z,96515.06
2023-04-02T23:52:16.670Z,96508.75
2023-04-02T23:55:19.133Z,96507.97
2023-04-02T23:58:21.730Z,96515.88
